sensor_id;sensor_type;location;lat;lon;timestamp;temperature;humidity
11214;DHT22;5664;48.606;13.456;2024-01-30T00:02:14;16.80;64.70
11214;DHT22;5664;48.606;13.456;2024-01-30T00:04:39;16.80;64.70
11214;DHT22;5664;48.606;13.456;2024-01-30T00:07:05;16.70;64.60
11214;DHT22;5664;48.606;13.456;2024-01-30T00:09:30;16.70;64.60
11214;DHT22;5664;48.606;13.456;2024-01-30T00:11:56;16.70;64.80
11214;DHT22;5664;48.606;13.456;2024-01-30T00:14:21;16.70;64.70
11214;DHT22;5664;48.606;13.456;2024-01-30T00:16:47;16.70;64.80
11214;DHT22;5664;48.606;13.456;2024-01-30T00:19:12;16.60;64.70
11214;DHT22;5664;48.606;13.456;2024-01-30T00:21:38;16.60;64.70
11214;DHT22;5664;48.606;13.456;2024-01-30T00:24:03;16.60;64.80
11214;DHT22;5664;48.606;13.456;2024-01-30T00:26:29;16.60;64.80
11214;DHT22;5664;48.606;13.456;2024-01-30T00:28:55;16.60;64.80
11214;DHT22;5664;48.606;13.456;2024-01-30T00:31:20;16.50;64.80
11214;DHT22;5664;48.606;13.456;2024-01-30T00:33:45;16.50;64.80
11214;DHT22;5664;48.606;13.456;2024-01-30T00:36:11;16.50;64.90
11214;DHT22;5664;48.606;13.456;2024-01-30T00:38:37;16.40;64.80
11214;DHT22;5664;48.606;13.456;2024-01-30T00:41:02;16.40;64.80
11214;DHT22;5664;48.606;13.456;2024-01-30T00:43:28;16.40;64.80
11214;DHT22;5664;48.606;13.456;2024-01-30T00:45:54;16.40;64.90
11214;DHT22;5664;48.606;13.456;2024-01-30T00:48:19;16.40;64.90
11214;DHT22;5664;48.606;13.456;2024-01-30T00:50:45;16.30;64.90
11214;DHT22;5664;48.606;13.456;2024-01-30T00:53:10;16.30;64.90
11214;DHT22;5664;48.606;13.456;2024-01-30T00:55:36;16.30;64.90
11214;DHT22;5664;48.606;13.456;2024-01-30T00:58:02;16.30;65.00
11214;DHT22;5664;48.606;13.456;2024-01-30T01:00:28;16.30;65.10
11214;DHT22;5664;48.606;13.456;2024-01-30T01:02:54;16.20;65.00
11214;DHT22;5664;48.606;13.456;2024-01-30T01:05:20;16.20;65.00
11214;DHT22;5664;48.606;13.456;2024-01-30T01:07:45;16.20;65.00
11214;DHT22;5664;48.606;13.456;2024-01-30T01:10:12;16.20;65.00
11214;DHT22;5664;48.606;13.456;2024-01-30T01:12:39;16.20;65.10
11214;DHT22;5664;48.606;13.456;2024-01-30T01:15:04;16.10;65.00
11214;DHT22;5664;48.606;13.456;2024-01-30T01:17:30;16.10;65.10
11214;DHT22;5664;48.606;13.456;2024-01-30T01:19:56;16.10;65.00
11214;DHT22;5664;48.606;13.456;2024-01-30T01:22:22;16.10;64.40
11214;DHT22;5664;48.606;13.456;2024-01-30T01:24:48;16.00;65.00
11214;DHT22;5664;48.606;13.456;2024-01-30T01:27:13;16.00;65.10
11214;DHT22;5664;48.606;13.456;2024-01-30T01:29:39;16.00;65.10
11214;DHT22;5664;48.606;13.456;2024-01-30T01:32:04;16.00;65.10
11214;DHT22;5664;48.606;13.456;2024-01-30T01:34:30;16.00;65.10
11214;DHT22;5664;48.606;13.456;2024-01-30T01:36:56;15.90;65.10
11214;DHT22;5664;48.606;13.456;2024-01-30T01:39:22;15.90;64.50
11214;DHT22;5664;48.606;13.456;2024-01-30T01:41:48;15.90;65.20
11214;DHT22;5664;48.606;13.456;2024-01-30T01:44:14;15.90;65.10
11214;DHT22;5664;48.606;13.456;2024-01-30T01:46:39;15.80;65.10
11214;DHT22;5664;48.606;13.456;2024-01-30T01:49:05;15.80;65.20
11214;DHT22;5664;48.606;13.456;2024-01-30T01:51:31;15.80;65.10
11214;DHT22;5664;48.606;13.456;2024-01-30T01:53:58;15.80;65.20
11214;DHT22;5664;48.606;13.456;2024-01-30T01:56:26;15.80;65.20
11214;DHT22;5664;48.606;13.456;2024-01-30T01:58:52;15.80;65.30
11214;DHT22;5664;48.606;13.456;2024-01-30T02:01:19;15.80;65.20
11214;DHT22;5664;48.606;13.456;2024-01-30T02:03:46;15.70;65.20
11214;DHT22;5664;48.606;13.456;2024-01-30T02:06:12;15.70;65.20
11214;DHT22;5664;48.606;13.456;2024-01-30T02:08:37;15.70;65.30
11214;DHT22;5664;48.606;13.456;2024-01-30T02:11:03;15.70;65.30
11214;DHT22;5664;48.606;13.456;2024-01-30T02:13:29;15.60;65.30
11214;DHT22;5664;48.606;13.456;2024-01-30T02:15:54;15.60;65.30
11214;DHT22;5664;48.606;13.456;2024-01-30T02:18:20;15.60;65.30
11214;DHT22;5664;48.606;13.456;2024-01-30T02:20:49;15.60;65.30
11214;DHT22;5664;48.606;13.456;2024-01-30T02:23:15;15.60;65.40
11214;DHT22;5664;48.606;13.456;2024-01-30T02:25:41;15.50;66.20
11214;DHT22;5664;48.606;13.456;2024-01-30T02:28:13;15.50;65.40
11214;DHT22;5664;48.606;13.456;2024-01-30T02:30:39;15.50;65.40
11214;DHT22;5664;48.606;13.456;2024-01-30T02:33:04;15.50;64.80
11214;DHT22;5664;48.606;13.456;2024-01-30T02:35:30;15.40;65.40
11214;DHT22;5664;48.606;13.456;2024-01-30T02:37:55;15.40;65.40
11214;DHT22;5664;48.606;13.456;2024-01-30T02:40:21;15.40;65.40
11214;DHT22;5664;48.606;13.456;2024-01-30T02:42:46;15.40;65.40
11214;DHT22;5664;48.606;13.456;2024-01-30T02:45:12;15.40;64.80
11214;DHT22;5664;48.606;13.456;2024-01-30T02:47:38;15.40;65.50
11214;DHT22;5664;48.606;13.456;2024-01-30T02:50:04;15.30;64.80
11214;DHT22;5664;48.606;13.456;2024-01-30T02:52:29;15.30;65.50
11214;DHT22;5664;48.606;13.456;2024-01-30T02:54:55;16.40;66.20
11214;DHT22;5664;48.606;13.456;2024-01-30T02:57:20;15.30;65.50
11214;DHT22;5664;48.606;13.456;2024-01-30T02:59:46;15.30;64.90
11214;DHT22;5664;48.606;13.456;2024-01-30T03:02:11;15.30;65.60
11214;DHT22;5664;48.606;13.456;2024-01-30T03:04:37;15.20;65.50
11214;DHT22;5664;48.606;13.456;2024-01-30T03:07:02;15.20;65.60
11214;DHT22;5664;48.606;13.456;2024-01-30T03:09:28;15.20;65.60
11214;DHT22;5664;48.606;13.456;2024-01-30T03:11:54;15.20;65.60
11214;DHT22;5664;48.606;13.456;2024-01-30T03:14:19;15.10;65.60
11214;DHT22;5664;48.606;13.456;2024-01-30T03:16:45;15.10;65.60
11214;DHT22;5664;48.606;13.456;2024-01-30T03:19:11;15.10;65.60
11214;DHT22;5664;48.606;13.456;2024-01-30T03:21:36;15.10;65.70
11214;DHT22;5664;48.606;13.456;2024-01-30T03:24:02;15.10;65.60
11214;DHT22;5664;48.606;13.456;2024-01-30T03:26:27;15.10;65.70
11214;DHT22;5664;48.606;13.456;2024-01-30T03:28:52;15.00;65.60
11214;DHT22;5664;48.606;13.456;2024-01-30T03:31:18;15.00;65.70
11214;DHT22;5664;48.606;13.456;2024-01-30T03:33:43;15.00;65.70
11214;DHT22;5664;48.606;13.456;2024-01-30T03:36:09;15.00;65.70
11214;DHT22;5664;48.606;13.456;2024-01-30T03:38:35;15.00;66.00
11214;DHT22;5664;48.606;13.456;2024-01-30T03:41:00;15.00;65.80
11214;DHT22;5664;48.606;13.456;2024-01-30T03:43:26;14.90;65.80
11214;DHT22;5664;48.606;13.456;2024-01-30T03:45:51;14.90;65.80
11214;DHT22;5664;48.606;13.456;2024-01-30T03:48:17;14.90;65.80
11214;DHT22;5664;48.606;13.456;2024-01-30T03:50:42;14.80;65.80
11214;DHT22;5664;48.606;13.456;2024-01-30T03:53:07;14.80;65.80
11214;DHT22;5664;48.606;13.456;2024-01-30T03:55:33;14.80;65.80
11214;DHT22;5664;48.606;13.456;2024-01-30T03:57:58;14.80;65.80
11214;DHT22;5664;48.606;13.456;2024-01-30T04:00:24;14.80;65.90
11214;DHT22;5664;48.606;13.456;2024-01-30T04:02:49;14.80;65.90
11214;DHT22;5664;48.606;13.456;2024-01-30T04:05:16;14.80;65.30
11214;DHT22;5664;48.606;13.456;2024-01-30T04:07:42;14.80;66.00
11214;DHT22;5664;48.606;13.456;2024-01-30T04:10:08;14.70;65.90
11214;DHT22;5664;48.606;13.456;2024-01-30T04:12:33;14.70;65.90
11214;DHT22;5664;48.606;13.456;2024-01-30T04:14:59;14.60;65.20
11214;DHT22;5664;48.606;13.456;2024-01-30T04:17:24;14.70;65.90
11214;DHT22;5664;48.606;13.456;2024-01-30T04:19:50;14.70;65.90
11214;DHT22;5664;48.606;13.456;2024-01-30T04:22:15;14.60;65.20
11214;DHT22;5664;48.606;13.456;2024-01-30T04:24:41;14.60;65.90
11214;DHT22;5664;48.606;13.456;2024-01-30T04:27:06;14.60;65.30
11214;DHT22;5664;48.606;13.456;2024-01-30T04:29:32;14.60;66.50
11214;DHT22;5664;48.606;13.456;2024-01-30T04:31:58;14.60;66.00
11214;DHT22;5664;48.606;13.456;2024-01-30T04:34:24;14.50;65.90
11214;DHT22;5664;48.606;13.456;2024-01-30T04:36:49;14.50;66.00
11214;DHT22;5664;48.606;13.456;2024-01-30T04:39:15;14.50;66.00
11214;DHT22;5664;48.606;13.456;2024-01-30T04:41:41;14.50;66.00
11214;DHT22;5664;48.606;13.456;2024-01-30T04:44:06;14.50;66.00
11214;DHT22;5664;48.606;13.456;2024-01-30T04:46:32;14.50;66.10
11214;DHT22;5664;48.606;13.456;2024-01-30T04:48:59;14.40;66.00
11214;DHT22;5664;48.606;13.456;2024-01-30T04:51:24;14.40;66.10
11214;DHT22;5664;48.606;13.456;2024-01-30T04:53:50;14.40;66.00
11214;DHT22;5664;48.606;13.456;2024-01-30T04:56:15;14.40;66.10
11214;DHT22;5664;48.606;13.456;2024-01-30T04:58:41;14.40;66.10
11214;DHT22;5664;48.606;13.456;2024-01-30T05:01:06;14.30;65.40
11214;DHT22;5664;48.606;13.456;2024-01-30T05:03:35;14.30;66.10
11214;DHT22;5664;48.606;13.456;2024-01-30T05:06:00;14.30;66.10
11214;DHT22;5664;48.606;13.456;2024-01-30T05:08:26;14.30;66.20
11214;DHT22;5664;48.606;13.456;2024-01-30T05:10:51;14.30;66.20
11214;DHT22;5664;48.606;13.456;2024-01-30T05:13:17;14.30;66.20
11214;DHT22;5664;48.606;13.456;2024-01-30T05:15:42;14.20;66.20
11214;DHT22;5664;48.606;13.456;2024-01-30T05:18:08;14.20;66.20
11214;DHT22;5664;48.606;13.456;2024-01-30T05:20:33;14.20;66.20
11214;DHT22;5664;48.606;13.456;2024-01-30T05:22:59;14.20;66.20
11214;DHT22;5664;48.606;13.456;2024-01-30T05:25:24;14.20;66.20
11214;DHT22;5664;48.606;13.456;2024-01-30T05:27:50;14.20;66.30
11214;DHT22;5664;48.606;13.456;2024-01-30T05:30:15;14.20;66.30
11214;DHT22;5664;48.606;13.456;2024-01-30T05:32:41;14.10;66.10
11214;DHT22;5664;48.606;13.456;2024-01-30T05:35:06;14.10;66.20
11214;DHT22;5664;48.606;13.456;2024-01-30T05:37:33;14.10;66.20
11214;DHT22;5664;48.606;13.456;2024-01-30T05:39:58;14.10;66.30
11214;DHT22;5664;48.606;13.456;2024-01-30T05:42:24;14.10;66.30
11214;DHT22;5664;48.606;13.456;2024-01-30T05:44:50;14.00;66.30
11214;DHT22;5664;48.606;13.456;2024-01-30T05:47:15;14.00;66.40
11214;DHT22;5664;48.606;13.456;2024-01-30T05:49:41;14.00;66.40
11214;DHT22;5664;48.606;13.456;2024-01-30T05:52:07;14.00;66.40
11214;DHT22;5664;48.606;13.456;2024-01-30T05:54:32;14.00;66.40
11214;DHT22;5664;48.606;13.456;2024-01-30T05:56:58;13.90;66.40
11214;DHT22;5664;48.606;13.456;2024-01-30T05:59:24;13.90;66.50
11214;DHT22;5664;48.606;13.456;2024-01-30T06:01:49;13.90;66.50
11214;DHT22;5664;48.606;13.456;2024-01-30T06:04:15;13.90;66.50
11214;DHT22;5664;48.606;13.456;2024-01-30T06:06:41;13.90;66.60
11214;DHT22;5664;48.606;13.456;2024-01-30T06:09:06;13.90;66.60
11214;DHT22;5664;48.606;13.456;2024-01-30T06:11:34;13.90;66.70
11214;DHT22;5664;48.606;13.456;2024-01-30T06:13:59;13.90;66.70
11214;DHT22;5664;48.606;13.456;2024-01-30T06:16:25;13.80;66.60
11214;DHT22;5664;48.606;13.456;2024-01-30T06:18:55;13.80;66.60
11214;DHT22;5664;48.606;13.456;2024-01-30T06:21:20;13.80;66.70
11214;DHT22;5664;48.606;13.456;2024-01-30T06:23:46;13.80;66.70
11214;DHT22;5664;48.606;13.456;2024-01-30T06:26:11;13.80;66.70
11214;DHT22;5664;48.606;13.456;2024-01-30T06:28:37;13.80;66.80
11214;DHT22;5664;48.606;13.456;2024-01-30T06:31:02;13.70;66.80
11214;DHT22;5664;48.606;13.456;2024-01-30T06:33:28;13.70;66.80
11214;DHT22;5664;48.606;13.456;2024-01-30T06:35:53;13.70;66.80
11214;DHT22;5664;48.606;13.456;2024-01-30T06:38:19;13.70;67.10
11214;DHT22;5664;48.606;13.456;2024-01-30T06:40:44;13.70;67.70
11214;DHT22;5664;48.606;13.456;2024-01-30T06:43:10;13.70;67.90
11214;DHT22;5664;48.606;13.456;2024-01-30T06:45:36;13.70;68.00
11214;DHT22;5664;48.606;13.456;2024-01-30T06:48:02;13.70;67.90
11214;DHT22;5664;48.606;13.456;2024-01-30T06:50:28;13.60;67.80
11214;DHT22;5664;48.606;13.456;2024-01-30T06:52:53;13.60;67.80
11214;DHT22;5664;48.606;13.456;2024-01-30T06:55:19;13.60;67.70
11214;DHT22;5664;48.606;13.456;2024-01-30T06:57:44;13.60;67.60
11214;DHT22;5664;48.606;13.456;2024-01-30T07:00:10;13.60;67.60
11214;DHT22;5664;48.606;13.456;2024-01-30T07:02:36;13.60;67.60
11214;DHT22;5664;48.606;13.456;2024-01-30T07:05:02;13.60;67.60
11214;DHT22;5664;48.606;13.456;2024-01-30T07:07:27;13.60;67.60
11214;DHT22;5664;48.606;13.456;2024-01-30T07:09:54;13.60;67.60
11214;DHT22;5664;48.606;13.456;2024-01-30T07:12:22;13.50;67.50
11214;DHT22;5664;48.606;13.456;2024-01-30T07:14:48;13.50;67.50
11214;DHT22;5664;48.606;13.456;2024-01-30T07:17:13;13.60;67.70
11214;DHT22;5664;48.606;13.456;2024-01-30T07:19:39;13.50;67.50
11214;DHT22;5664;48.606;13.456;2024-01-30T07:22:04;13.50;67.60
11214;DHT22;5664;48.606;13.456;2024-01-30T07:24:30;13.50;67.60
11214;DHT22;5664;48.606;13.456;2024-01-30T07:26:55;13.50;67.60
11214;DHT22;5664;48.606;13.456;2024-01-30T07:29:21;13.50;67.60
11214;DHT22;5664;48.606;13.456;2024-01-30T07:31:47;13.50;67.60
11214;DHT22;5664;48.606;13.456;2024-01-30T07:34:13;13.50;67.60
11214;DHT22;5664;48.606;13.456;2024-01-30T07:36:38;13.50;67.60
11214;DHT22;5664;48.606;13.456;2024-01-30T07:39:04;13.50;67.60
11214;DHT22;5664;48.606;13.456;2024-01-30T07:41:44;13.60;67.70
11214;DHT22;5664;48.606;13.456;2024-01-30T07:44:10;13.60;67.10
11214;DHT22;5664;48.606;13.456;2024-01-30T07:46:35;13.60;67.80
11214;DHT22;5664;48.606;13.456;2024-01-30T07:49:01;13.70;67.90
11214;DHT22;5664;48.606;13.456;2024-01-30T07:51:27;13.70;68.00
11214;DHT22;5664;48.606;13.456;2024-01-30T07:53:54;13.80;68.00
11214;DHT22;5664;48.606;13.456;2024-01-30T07:56:20;13.80;67.90
11214;DHT22;5664;48.606;13.456;2024-01-30T07:58:45;14.00;67.70
11214;DHT22;5664;48.606;13.456;2024-01-30T08:01:11;14.10;67.50
11214;DHT22;5664;48.606;13.456;2024-01-30T08:03:36;14.20;67.30
11214;DHT22;5664;48.606;13.456;2024-01-30T08:06:02;14.30;67.10
11214;DHT22;5664;48.606;13.456;2024-01-30T08:08:28;14.40;66.90
11214;DHT22;5664;48.606;13.456;2024-01-30T08:10:54;14.60;66.90
11214;DHT22;5664;48.606;13.456;2024-01-30T08:13:19;14.70;66.70
11214;DHT22;5664;48.606;13.456;2024-01-30T08:15:44;14.80;66.90
11214;DHT22;5664;48.606;13.456;2024-01-30T08:18:10;15.00;67.40
11214;DHT22;5664;48.606;13.456;2024-01-30T08:20:35;15.10;67.70
11214;DHT22;5664;48.606;13.456;2024-01-30T08:23:01;15.30;68.20
11214;DHT22;5664;48.606;13.456;2024-01-30T08:25:26;15.40;68.50
11214;DHT22;5664;48.606;13.456;2024-01-30T08:27:52;15.60;68.60
11214;DHT22;5664;48.606;13.456;2024-01-30T08:30:17;15.80;68.80
11214;DHT22;5664;48.606;13.456;2024-01-30T08:32:43;16.00;68.60
11214;DHT22;5664;48.606;13.456;2024-01-30T08:35:08;16.20;68.40
11214;DHT22;5664;48.606;13.456;2024-01-30T08:37:34;16.50;68.40
11214;DHT22;5664;48.606;13.456;2024-01-30T08:39:59;16.70;69.20
11214;DHT22;5664;48.606;13.456;2024-01-30T08:42:25;17.00;68.30
11214;DHT22;5664;48.606;13.456;2024-01-30T08:44:51;17.30;67.60
11214;DHT22;5664;48.606;13.456;2024-01-30T08:47:18;17.50;66.70
11214;DHT22;5664;48.606;13.456;2024-01-30T08:49:44;17.60;66.60
11214;DHT22;5664;48.606;13.456;2024-01-30T08:52:12;17.70;66.90
11214;DHT22;5664;48.606;13.456;2024-01-30T08:54:38;17.90;66.90
11214;DHT22;5664;48.606;13.456;2024-01-30T08:57:03;18.10;66.70
11214;DHT22;5664;48.606;13.456;2024-01-30T08:59:29;18.30;66.30
11214;DHT22;5664;48.606;13.456;2024-01-30T09:01:55;18.60;65.90
11214;DHT22;5664;48.606;13.456;2024-01-30T09:04:21;18.80;65.50
11214;DHT22;5664;48.606;13.456;2024-01-30T09:06:47;19.00;65.10
11214;DHT22;5664;48.606;13.456;2024-01-30T09:09:12;19.20;64.80
11214;DHT22;5664;48.606;13.456;2024-01-30T09:11:38;19.40;64.80
11214;DHT22;5664;48.606;13.456;2024-01-30T09:14:03;19.50;64.60
11214;DHT22;5664;48.606;13.456;2024-01-30T09:16:29;19.70;64.40
11214;DHT22;5664;48.606;13.456;2024-01-30T09:18:54;19.80;64.20
11214;DHT22;5664;48.606;13.456;2024-01-30T09:21:20;20.00;64.20
11214;DHT22;5664;48.606;13.456;2024-01-30T09:23:48;20.20;64.20
11214;DHT22;5664;48.606;13.456;2024-01-30T09:26:14;20.30;64.00
11214;DHT22;5664;48.606;13.456;2024-01-30T09:28:39;20.50;63.70
11214;DHT22;5664;48.606;13.456;2024-01-30T09:31:11;20.70;63.40
11214;DHT22;5664;48.606;13.456;2024-01-30T09:33:36;20.80;63.10
11214;DHT22;5664;48.606;13.456;2024-01-30T09:36:02;20.90;63.00
11214;DHT22;5664;48.606;13.456;2024-01-30T09:38:27;21.00;63.00
11214;DHT22;5664;48.606;13.456;2024-01-30T09:40:53;21.10;63.00
11214;DHT22;5664;48.606;13.456;2024-01-30T09:43:20;21.10;63.20
11214;DHT22;5664;48.606;13.456;2024-01-30T09:45:47;21.20;63.40
11214;DHT22;5664;48.606;13.456;2024-01-30T09:48:13;21.30;63.50
11214;DHT22;5664;48.606;13.456;2024-01-30T09:50:42;21.40;62.90
11214;DHT22;5664;48.606;13.456;2024-01-30T09:53:08;21.50;63.60
11214;DHT22;5664;48.606;13.456;2024-01-30T09:55:34;21.70;63.70
11214;DHT22;5664;48.606;13.456;2024-01-30T09:58:01;21.80;63.60
11214;DHT22;5664;48.606;13.456;2024-01-30T10:00:26;22.00;63.60
11214;DHT22;5664;48.606;13.456;2024-01-30T10:02:52;22.10;63.50
11214;DHT22;5664;48.606;13.456;2024-01-30T10:05:18;22.30;63.40
11214;DHT22;5664;48.606;13.456;2024-01-30T10:07:53;22.40;63.30
11214;DHT22;5664;48.606;13.456;2024-01-30T10:10:21;22.50;63.20
11214;DHT22;5664;48.606;13.456;2024-01-30T10:12:47;22.60;62.60
11214;DHT22;5664;48.606;13.456;2024-01-30T10:15:13;22.70;61.20
11214;DHT22;5664;48.606;13.456;2024-01-30T10:17:39;22.80;59.90
11214;DHT22;5664;48.606;13.456;2024-01-30T10:20:05;22.90;59.20
11214;DHT22;5664;48.606;13.456;2024-01-30T10:22:30;23.00;58.70
11214;DHT22;5664;48.606;13.456;2024-01-30T10:24:56;23.10;58.30
11214;DHT22;5664;48.606;13.456;2024-01-30T10:27:27;23.30;57.90
11214;DHT22;5664;48.606;13.456;2024-01-30T10:29:55;23.40;57.50
11214;DHT22;5664;48.606;13.456;2024-01-30T10:32:20;23.40;57.10
11214;DHT22;5664;48.606;13.456;2024-01-30T10:34:46;23.60;56.90
11214;DHT22;5664;48.606;13.456;2024-01-30T10:37:12;23.60;56.60
11214;DHT22;5664;48.606;13.456;2024-01-30T10:39:40;23.70;56.50
11214;DHT22;5664;48.606;13.456;2024-01-30T10:42:06;23.80;56.40
11214;DHT22;5664;48.606;13.456;2024-01-30T10:44:44;23.90;56.30
11214;DHT22;5664;48.606;13.456;2024-01-30T10:47:12;24.00;56.10
11214;DHT22;5664;48.606;13.456;2024-01-30T10:49:41;24.00;55.80
11214;DHT22;5664;48.606;13.456;2024-01-30T10:52:07;24.10;55.70
11214;DHT22;5664;48.606;13.456;2024-01-30T10:54:34;24.20;55.70
11214;DHT22;5664;48.606;13.456;2024-01-30T10:57:00;24.20;55.40
11214;DHT22;5664;48.606;13.456;2024-01-30T10:59:27;24.30;55.50
11214;DHT22;5664;48.606;13.456;2024-01-30T11:01:53;24.30;55.30
11214;DHT22;5664;48.606;13.456;2024-01-30T11:04:18;24.40;55.20
11214;DHT22;5664;48.606;13.456;2024-01-30T11:06:44;24.50;55.00
11214;DHT22;5664;48.606;13.456;2024-01-30T11:09:10;24.60;54.80
11214;DHT22;5664;48.606;13.456;2024-01-30T11:11:48;24.70;54.60
11214;DHT22;5664;48.606;13.456;2024-01-30T11:14:13;24.70;54.30
11214;DHT22;5664;48.606;13.456;2024-01-30T11:16:39;24.90;54.20
11214;DHT22;5664;48.606;13.456;2024-01-30T11:19:05;25.00;54.00
11214;DHT22;5664;48.606;13.456;2024-01-30T11:21:40;25.00;53.80
11214;DHT22;5664;48.606;13.456;2024-01-30T11:24:06;25.10;53.60
11214;DHT22;5664;48.606;13.456;2024-01-30T11:26:32;25.20;53.60
11214;DHT22;5664;48.606;13.456;2024-01-30T11:28:58;25.30;53.60
11214;DHT22;5664;48.606;13.456;2024-01-30T11:31:23;25.30;53.50
11214;DHT22;5664;48.606;13.456;2024-01-30T11:33:52;25.30;53.20
11214;DHT22;5664;48.606;13.456;2024-01-30T11:36:18;25.40;52.90
11214;DHT22;5664;48.606;13.456;2024-01-30T11:38:46;25.40;52.50
11214;DHT22;5664;48.606;13.456;2024-01-30T11:41:12;25.50;52.50
11214;DHT22;5664;48.606;13.456;2024-01-30T11:43:38;25.50;52.50
11214;DHT22;5664;48.606;13.456;2024-01-30T11:46:05;25.50;52.60
11214;DHT22;5664;48.606;13.456;2024-01-30T11:48:31;25.50;52.60
11214;DHT22;5664;48.606;13.456;2024-01-30T11:50:57;25.60;52.80
11214;DHT22;5664;48.606;13.456;2024-01-30T11:53:22;25.70;52.60
11214;DHT22;5664;48.606;13.456;2024-01-30T11:55:49;25.90;52.10
11214;DHT22;5664;48.606;13.456;2024-01-30T11:58:14;26.10;51.80
11214;DHT22;5664;48.606;13.456;2024-01-30T12:00:40;26.30;51.30
11214;DHT22;5664;48.606;13.456;2024-01-30T12:03:06;26.60;50.90
11214;DHT22;5664;48.606;13.456;2024-01-30T12:05:32;26.90;50.40
11214;DHT22;5664;48.606;13.456;2024-01-30T12:07:57;27.10;50.00
11214;DHT22;5664;48.606;13.456;2024-01-30T12:10:26;27.30;49.50
11214;DHT22;5664;48.606;13.456;2024-01-30T12:12:52;27.40;49.00
11214;DHT22;5664;48.606;13.456;2024-01-30T12:15:18;27.50;48.80
11214;DHT22;5664;48.606;13.456;2024-01-30T12:17:44;27.40;48.90
11214;DHT22;5664;48.606;13.456;2024-01-30T12:20:13;27.30;49.20
11214;DHT22;5664;48.606;13.456;2024-01-30T12:22:40;27.20;49.50
11214;DHT22;5664;48.606;13.456;2024-01-30T12:27:34;26.90;50.20
11214;DHT22;5664;48.606;13.456;2024-01-30T12:30:00;26.80;50.60
11214;DHT22;5664;48.606;13.456;2024-01-30T12:32:25;26.60;51.00
11214;DHT22;5664;48.606;13.456;2024-01-30T12:34:54;26.50;51.30
11214;DHT22;5664;48.606;13.456;2024-01-30T12:37:20;26.40;51.60
11214;DHT22;5664;48.606;13.456;2024-01-30T12:39:48;26.20;51.80
11214;DHT22;5664;48.606;13.456;2024-01-30T12:42:14;26.20;52.10
11214;DHT22;5664;48.606;13.456;2024-01-30T12:44:39;27.10;53.00
11214;DHT22;5664;48.606;13.456;2024-01-30T12:47:05;26.00;52.50
11214;DHT22;5664;48.606;13.456;2024-01-30T12:49:31;25.90;52.70
11214;DHT22;5664;48.606;13.456;2024-01-30T12:51:56;25.90;53.00
11214;DHT22;5664;48.606;13.456;2024-01-30T12:54:22;25.90;53.00
11214;DHT22;5664;48.606;13.456;2024-01-30T12:56:48;25.80;53.00
11214;DHT22;5664;48.606;13.456;2024-01-30T12:59:13;25.80;53.00
11214;DHT22;5664;48.606;13.456;2024-01-30T13:01:39;25.80;53.30
11214;DHT22;5664;48.606;13.456;2024-01-30T13:04:04;25.80;53.30
11214;DHT22;5664;48.606;13.456;2024-01-30T13:06:30;25.80;52.80
11214;DHT22;5664;48.606;13.456;2024-01-30T13:08:56;25.70;53.20
11214;DHT22;5664;48.606;13.456;2024-01-30T13:11:21;25.80;53.20
11214;DHT22;5664;48.606;13.456;2024-01-30T13:13:47;25.80;53.30
11214;DHT22;5664;48.606;13.456;2024-01-30T13:16:12;25.80;53.20
11214;DHT22;5664;48.606;13.456;2024-01-30T13:18:38;25.90;53.30
11214;DHT22;5664;48.606;13.456;2024-01-30T13:21:03;26.00;53.30
11214;DHT22;5664;48.606;13.456;2024-01-30T13:23:29;26.10;53.00
11214;DHT22;5664;48.606;13.456;2024-01-30T13:25:54;26.20;52.70
11214;DHT22;5664;48.606;13.456;2024-01-30T13:28:23;26.40;52.30
11214;DHT22;5664;48.606;13.456;2024-01-30T13:30:49;26.60;51.80
11214;DHT22;5664;48.606;13.456;2024-01-30T13:33:14;26.90;51.40
11214;DHT22;5664;48.606;13.456;2024-01-30T13:35:39;27.10;51.00
11214;DHT22;5664;48.606;13.456;2024-01-30T13:38:05;27.20;50.60
11214;DHT22;5664;48.606;13.456;2024-01-30T13:40:30;27.40;50.30
11214;DHT22;5664;48.606;13.456;2024-01-30T13:42:56;27.70;49.70
11214;DHT22;5664;48.606;13.456;2024-01-30T13:45:21;27.90;49.10
11214;DHT22;5664;48.606;13.456;2024-01-30T13:47:47;27.80;49.00
11214;DHT22;5664;48.606;13.456;2024-01-30T13:50:12;27.60;49.30
11214;DHT22;5664;48.606;13.456;2024-01-30T13:52:40;27.50;49.70
11214;DHT22;5664;48.606;13.456;2024-01-30T13:55:06;27.40;50.00
11214;DHT22;5664;48.606;13.456;2024-01-30T13:57:32;27.30;50.10
11214;DHT22;5664;48.606;13.456;2024-01-30T14:00:01;27.40;50.10
11214;DHT22;5664;48.606;13.456;2024-01-30T14:02:26;27.60;49.80
11214;DHT22;5664;48.606;13.456;2024-01-30T14:04:52;27.80;49.30
11214;DHT22;5664;48.606;13.456;2024-01-30T14:07:17;28.10;48.90
11214;DHT22;5664;48.606;13.456;2024-01-30T14:09:46;28.20;48.60
11214;DHT22;5664;48.606;13.456;2024-01-30T14:12:11;28.30;48.40
11214;DHT22;5664;48.606;13.456;2024-01-30T14:14:37;28.30;48.10
11214;DHT22;5664;48.606;13.456;2024-01-30T14:17:02;28.20;48.20
11214;DHT22;5664;48.606;13.456;2024-01-30T14:19:28;28.00;48.30
11214;DHT22;5664;48.606;13.456;2024-01-30T14:21:53;27.70;48.60
11214;DHT22;5664;48.606;13.456;2024-01-30T14:24:19;27.50;49.30
11214;DHT22;5664;48.606;13.456;2024-01-30T14:26:44;27.20;49.80
11214;DHT22;5664;48.606;13.456;2024-01-30T14:29:10;27.00;50.20
11214;DHT22;5664;48.606;13.456;2024-01-30T14:31:36;26.80;50.60
11214;DHT22;5664;48.606;13.456;2024-01-30T14:34:01;26.50;50.90
11214;DHT22;5664;48.606;13.456;2024-01-30T14:36:28;26.40;51.40
11214;DHT22;5664;48.606;13.456;2024-01-30T14:38:54;26.20;51.70
11214;DHT22;5664;48.606;13.456;2024-01-30T14:41:20;26.10;52.00
11214;DHT22;5664;48.606;13.456;2024-01-30T14:43:45;25.90;52.20
11214;DHT22;5664;48.606;13.456;2024-01-30T14:46:11;25.80;52.40
11214;DHT22;5664;48.606;13.456;2024-01-30T14:48:36;25.80;52.70
11214;DHT22;5664;48.606;13.456;2024-01-30T14:51:02;25.70;52.80
11214;DHT22;5664;48.606;13.456;2024-01-30T14:53:28;25.60;53.00
11214;DHT22;5664;48.606;13.456;2024-01-30T14:55:53;25.60;53.10
11214;DHT22;5664;48.606;13.456;2024-01-30T14:58:19;25.60;53.10
11214;DHT22;5664;48.606;13.456;2024-01-30T15:00:44;25.60;53.20
11214;DHT22;5664;48.606;13.456;2024-01-30T15:03:10;25.50;53.20
11214;DHT22;5664;48.606;13.456;2024-01-30T15:05:35;25.50;53.20
11214;DHT22;5664;48.606;13.456;2024-01-30T15:08:12;25.50;52.80
11214;DHT22;5664;48.606;13.456;2024-01-30T15:10:37;25.40;53.30
11214;DHT22;5664;48.606;13.456;2024-01-30T15:13:03;25.30;53.40
11214;DHT22;5664;48.606;13.456;2024-01-30T15:15:28;25.20;53.40
11214;DHT22;5664;48.606;13.456;2024-01-30T15:17:56;25.10;53.60
11214;DHT22;5664;48.606;13.456;2024-01-30T15:20:21;25.00;53.90
11214;DHT22;5664;48.606;13.456;2024-01-30T15:22:47;24.90;54.20
11214;DHT22;5664;48.606;13.456;2024-01-30T15:25:13;24.80;54.50